San Diego, California
Current Conditions -  °F | °C
As of 3:51 AM on Thursday 27 Nov 2014 (Local Time) from KSAN Reporting Station
Clear Clear  
Wind Chill: 57°   Ceiling: Unl
Heat Index: 57°   Visibility: 10mi
Dew Point: 30°   Wind: 0mph
Humidity: 36%   Direction: NA
Pressure: 30.09"   Gusts: NA
Location:  32.72°N, 117.16°W
Report Text: KSAN 271151Z 00000KT 10SM CLR 14/M01 A3009 RMK AO2 SLP189 T01391011 10183 20133 56007 $
Loading
Personal Weather Stations






























Interactive Weather Map New forecast layout! Learn more

10-Day Weather Forecast

Advertisements
Track Severe Weather on mobile